createdAt,value
2022-07-26T00:00:17.161Z,36.67341
2022-07-26T00:05:18.130Z,37.04893
2022-07-26T00:10:19.082Z,37.11569
2022-07-26T00:15:20.061Z,37.14015
2022-07-26T00:20:21.001Z,36.9088
2022-07-26T00:25:22.014Z,36.82614
2022-07-26T00:30:22.964Z,37.01467
2022-07-26T00:35:23.951Z,36.61964
2022-07-26T00:40:24.897Z,36.84522
2022-07-26T00:45:25.868Z,36.8331
2022-07-26T00:50:26.806Z,37.01537
2022-07-26T00:55:27.797Z,37.05217
2022-07-26T01:00:28.745Z,36.93675
2022-07-26T01:05:30.032Z,36.93652
2022-07-26T01:10:31.039Z,37.10163
2022-07-26T01:15:31.994Z,37.28376
2022-07-26T01:20:32.989Z,37.26634
2022-07-26T01:25:43.206Z,37.21013
2022-07-26T01:30:44.974Z,37.00373
2022-07-26T01:35:46.552Z,37.23374
2022-07-26T01:40:47.504Z,37.28274
2022-07-26T01:45:48.586Z,37.51348
2022-07-26T01:50:49.575Z,37.73128
2022-07-26T01:55:50.476Z,37.95979
2022-07-26T02:00:51.384Z,38.09911
2022-07-26T02:05:52.352Z,38.25592
2022-07-26T02:10:53.484Z,38.36442
2022-07-26T02:15:54.458Z,38.39447
2022-07-26T02:20:55.396Z,38.48476
2022-07-26T02:25:56.300Z,38.58736
2022-07-26T02:30:57.428Z,38.8097
2022-07-26T02:35:58.415Z,38.57562
2022-07-26T02:40:59.351Z,38.58908
2022-07-26T02:46:01.485Z,38.70403
2022-07-26T02:56:03.974Z,38.29309
2022-07-26T03:01:04.976Z,38.13719
2022-07-26T03:06:10.953Z,38.4214
2022-07-26T03:11:12.299Z,38.51239
2022-07-26T03:16:13.410Z,38.56152
2022-07-26T03:21:14.360Z,38.73023
2022-07-26T03:26:15.282Z,38.79097
2022-07-26T03:41:17.220Z,38.69569
2022-07-26T03:46:18.187Z,38.75066
2022-07-26T03:51:19.139Z,38.87045
2022-07-26T03:56:20.081Z,38.75718
2022-07-26T04:01:21.017Z,38.73982
2022-07-26T04:06:23.099Z,38.83012
2022-07-26T04:11:26.714Z,38.68646
2022-07-26T04:16:30.272Z,38.77071
2022-07-26T04:21:31.309Z,38.51223
2022-07-26T04:26:32.237Z,38.35646
2022-07-26T04:31:34.894Z,38.30934
2022-07-26T04:36:37.507Z,38.35687
2022-07-26T04:41:38.522Z,38.297
2022-07-26T04:46:39.557Z,38.28524
2022-07-26T04:51:45.932Z,38.32107
2022-07-26T04:56:46.852Z,38.09845
2022-07-26T05:01:47.846Z,37.99653
2022-07-26T05:06:48.825Z,37.96044
2022-07-26T05:11:49.813Z,38.08651
2022-07-26T05:16:50.837Z,38.08063
2022-07-26T05:21:51.820Z,38.03246
2022-07-26T05:26:56.831Z,37.83358
2022-07-26T05:31:59.516Z,37.64853
2022-07-26T05:37:00.421Z,37.60061
2022-07-26T05:42:01.394Z,36.762
2022-07-26T05:47:02.368Z,36.95501
2022-07-26T05:52:03.337Z,36.66781
2022-07-26T05:57:04.490Z,36.63195
2022-07-26T06:02:05.571Z,36.33504
2022-07-26T06:07:06.552Z,36.30739
2022-07-26T06:12:07.523Z,35.89735
2022-07-26T06:17:08.510Z,35.2937
2022-07-26T06:22:09.478Z,34.95399
2022-07-26T06:27:10.498Z,34.74531
2022-07-26T06:32:11.666Z,34.3353
2022-07-26T06:37:12.612Z,34.11887
2022-07-26T06:42:13.617Z,33.70025
2022-07-26T06:47:14.549Z,33.30577
2022-07-26T06:52:15.481Z,33.08948
2022-07-26T06:57:16.448Z,32.58637
2022-07-26T07:02:17.375Z,32.2275
2022-07-26T07:07:18.347Z,32.18906
2022-07-26T07:12:19.389Z,31.55921
2022-07-26T07:17:20.542Z,29.02454
2022-07-26T07:22:21.485Z,29.67883
2022-07-26T07:27:22.412Z,29.78104
2022-07-26T07:32:24.687Z,29.21367
2022-07-26T07:37:25.787Z,28.86315
2022-07-26T07:42:26.722Z,28.35884
2022-07-26T07:47:27.673Z,28.02398
2022-07-26T07:52:28.617Z,28.1887
2022-07-26T07:57:29.539Z,28.32524
2022-07-26T08:02:30.883Z,28.0732
2022-07-26T08:07:33.033Z,27.87436
2022-07-26T08:12:37.335Z,27.29977
2022-07-26T08:17:41.848Z,27.16836
2022-07-26T08:22:43.140Z,26.57066
2022-07-26T08:27:51.063Z,26.31457
2022-07-26T08:33:03.810Z,26.54269
2022-07-26T08:38:04.834Z,26.61542
2022-07-26T08:43:05.836Z,26.39128
2022-07-26T08:48:17.303Z,26.416
2022-07-26T08:53:18.997Z,26.17387
2022-07-26T08:58:20.169Z,25.99733
2022-07-26T09:03:21.227Z,25.97389
2022-07-26T09:08:22.227Z,25.55219
2022-07-26T09:13:23.174Z,25.02155
2022-07-26T09:18:24.573Z,24.5523
2022-07-26T09:23:25.497Z,24.49866
2022-07-26T09:28:26.413Z,24.45723
2022-07-26T09:33:27.334Z,23.83792
2022-07-26T09:38:28.550Z,23.8238
2022-07-26T09:43:29.506Z,23.87845
2022-07-26T09:48:45.907Z,23.37651
2022-07-26T09:54:08.204Z,23.45544
2022-07-26T09:59:09.641Z,22.03155
2022-07-26T10:04:11.081Z,19.96042
2022-07-26T10:14:13.246Z,20.903
2022-07-26T10:19:14.559Z,21.09009
2022-07-26T10:24:15.927Z,21.06153
2022-07-26T10:29:17.102Z,21.13792
2022-07-26T10:34:18.064Z,21.58299
2022-07-26T10:39:18.991Z,21.85708
2022-07-26T10:44:19.925Z,22.15504
2022-07-26T10:49:20.963Z,22.28588
2022-07-26T10:54:21.916Z,22.15264
2022-07-26T10:59:45.813Z,22.04112
2022-07-26T11:04:55.591Z,21.34006
2022-07-26T11:09:56.582Z,21.33323
2022-07-26T11:14:57.555Z,21.38001
2022-07-26T11:19:58.612Z,21.52822
2022-07-26T11:24:59.548Z,21.65957
2022-07-26T11:30:00.581Z,21.81557
2022-07-26T11:35:01.813Z,21.29303
2022-07-26T11:40:02.851Z,21.14522
2022-07-26T11:45:03.931Z,20.85736
2022-07-26T11:50:21.839Z,21.00684
2022-07-26T11:55:23.864Z,20.90486
2022-07-26T12:00:24.774Z,20.88646
2022-07-26T12:05:25.941Z,20.82184
2022-07-26T12:10:27.046Z,20.67295
2022-07-26T12:20:28.504Z,20.98471
2022-07-26T12:25:29.442Z,21.27166
2022-07-26T12:30:30.835Z,22.02771
2022-07-26T12:35:32.221Z,23.80853
2022-07-26T12:40:33.252Z,25.2874
2022-07-26T12:45:34.351Z,26.20305
2022-07-26T12:50:35.519Z,26.56888
2022-07-26T12:56:30.402Z,26.86421
2022-07-26T13:01:32.112Z,27.0447
2022-07-26T13:06:33.202Z,26.78448
2022-07-26T13:11:34.134Z,26.50949
2022-07-26T13:16:35.126Z,26.60531
2022-07-26T13:21:36.113Z,26.78467
2022-07-26T13:26:37.314Z,27.0244
2022-07-26T13:31:38.284Z,27.32908
2022-07-26T13:36:39.185Z,27.59317
2022-07-26T13:41:40.118Z,27.71586
2022-07-26T13:46:41.196Z,27.74327
2022-07-26T13:51:42.196Z,27.63172
2022-07-26T13:56:43.099Z,27.60041
2022-07-26T14:01:45.139Z,27.59686
2022-07-26T14:06:46.331Z,27.67102
2022-07-26T14:11:47.294Z,27.44261
2022-07-26T14:16:49.705Z,27.36962
2022-07-26T14:21:59.925Z,27.40856
2022-07-26T14:27:02.774Z,27.45252
2022-07-26T14:32:04.067Z,27.71442
2022-07-26T14:37:15.183Z,27.92843
2022-07-26T14:42:43.835Z,28.03079
2022-07-26T14:47:44.771Z,28.07237
2022-07-26T14:52:45.693Z,28.21021
2022-07-26T14:57:46.605Z,28.14692
2022-07-26T15:02:47.787Z,28.03517
2022-07-26T15:07:48.894Z,28.19558
2022-07-26T15:12:49.819Z,28.30522
2022-07-26T15:17:50.792Z,28.28291
2022-07-26T15:22:51.775Z,27.89922
2022-07-26T15:27:52.700Z,27.47517
2022-07-26T15:32:53.658Z,27.31438
2022-07-26T15:37:54.553Z,27.57673
2022-07-26T15:42:55.497Z,27.15547
2022-07-26T15:48:05.740Z,26.36054
2022-07-26T15:53:14.805Z,25.57385
2022-07-26T15:58:15.723Z,25.62254
2022-07-26T16:03:16.859Z,25.57524
2022-07-26T16:08:17.779Z,25.52656
2022-07-26T16:13:18.701Z,24.84154
2022-07-26T16:18:19.635Z,24.94866
2022-07-26T16:23:20.734Z,24.28613
2022-07-26T16:28:21.797Z,23.97792
2022-07-26T16:33:22.867Z,23.99339
2022-07-26T16:38:24.123Z,24.09669
2022-07-26T16:43:34.212Z,23.97456
2022-07-26T16:48:35.311Z,24.21408
2022-07-26T16:53:36.396Z,24.27159
2022-07-26T16:58:37.313Z,24.3158
2022-07-26T17:03:38.281Z,24.22295
2022-07-26T17:08:39.296Z,24.17451
2022-07-26T17:13:40.224Z,24.08733
2022-07-26T17:18:41.188Z,24.02667
2022-07-26T17:23:42.188Z,23.957
2022-07-26T17:28:43.130Z,23.39039
2022-07-26T17:33:44.028Z,23.01528
2022-07-26T17:38:45.014Z,22.41098
2022-07-26T17:43:47.938Z,21.99147
2022-07-26T17:48:49.015Z,22.23935
2022-07-26T17:53:53.291Z,22.2204
2022-07-26T17:58:54.566Z,22.21729
2022-07-26T18:03:55.545Z,22.26951
2022-07-26T18:08:56.486Z,22.32584
2022-07-26T18:13:57.439Z,22.32877
2022-07-26T18:18:58.357Z,22.31538
2022-07-26T18:24:15.890Z,22.20077
2022-07-26T18:29:17.617Z,22.27906
2022-07-26T18:34:18.612Z,22.387
2022-07-26T18:39:32.886Z,22.50122
2022-07-26T18:44:34.216Z,22.42841
2022-07-26T18:49:35.320Z,22.3577
2022-07-26T18:54:36.431Z,22.31021
2022-07-26T18:59:37.412Z,22.28167
2022-07-26T19:04:40.796Z,22.28057
2022-07-26T19:09:41.783Z,22.40057
2022-07-26T19:14:42.728Z,22.49624
2022-07-26T19:19:43.627Z,22.57705
2022-07-26T19:24:44.556Z,22.66459
2022-07-26T19:29:45.492Z,22.76811
2022-07-26T19:34:46.464Z,22.87571
2022-07-26T19:39:47.429Z,23.10277
2022-07-26T19:44:48.346Z,23.42722
2022-07-26T19:49:49.257Z,23.55503
2022-07-26T19:54:50.538Z,23.48499
2022-07-26T19:59:52.781Z,23.45805
2022-07-26T20:04:53.739Z,23.45551
2022-07-26T20:09:54.676Z,23.2203
2022-07-26T20:14:55.611Z,23.30608
2022-07-26T20:19:56.540Z,23.40735
2022-07-26T20:24:57.518Z,23.60989
2022-07-26T20:30:01.320Z,23.77146
2022-07-26T20:35:12.524Z,23.85614
2022-07-26T20:40:15.473Z,23.96341
2022-07-26T20:45:18.861Z,24.00242
2022-07-26T20:50:19.796Z,24.0732
2022-07-26T20:55:20.786Z,24.25918
2022-07-26T21:00:21.716Z,24.0025
2022-07-26T21:05:22.738Z,23.49594
2022-07-26T21:10:23.631Z,23.06764
2022-07-26T21:15:24.563Z,22.80483
2022-07-26T21:20:30.584Z,22.78376
2022-07-26T21:25:32.074Z,22.7006
2022-07-26T21:30:33.120Z,22.66678
2022-07-26T21:35:39.313Z,22.66696
2022-07-26T21:40:40.213Z,22.69488
2022-07-26T21:45:41.383Z,22.60424
2022-07-26T21:50:42.391Z,22.52144
2022-07-26T21:55:43.383Z,22.50052
2022-07-26T22:00:44.406Z,22.4547
2022-07-26T22:05:45.430Z,22.44233
2022-07-26T22:10:46.374Z,22.38821
2022-07-26T22:15:47.660Z,22.33204
2022-07-26T22:20:48.620Z,22.28072
2022-07-26T22:25:49.585Z,22.33181
2022-07-26T22:30:50.512Z,22.22856
2022-07-26T22:35:51.431Z,22.12288
2022-07-26T22:40:52.352Z,22.0383
2022-07-26T22:45:53.475Z,21.98638
2022-07-26T22:50:54.507Z,22.02599
2022-07-26T22:55:55.436Z,22.04716
2022-07-26T23:00:56.457Z,22.02281
2022-07-26T23:05:57.418Z,22.08725
2022-07-26T23:10:58.657Z,22.31309
2022-07-26T23:16:00.945Z,22.33148
2022-07-26T23:21:03.686Z,22.39292
2022-07-26T23:26:05.055Z,22.47227
2022-07-26T23:31:06.081Z,22.4961
2022-07-26T23:36:07.067Z,22.57023
2022-07-26T23:41:08.018Z,22.63953
2022-07-26T23:46:08.999Z,22.72024
2022-07-26T23:51:09.934Z,22.85735
2022-07-26T23:56:10.906Z,22.95182
